Service & Buchung: (0 21 61) 82 09 80

Öffnungszeiten: Mo-FR: 09.30 - 18.30 Uhr
Samstag: 10.00 - 13:00 Uhr

Suche öffnen
 

März 2019

Titel der Reise von bis Dauer Preis
Dagebüll: Frühlingsschnuppern an der Nordsee 21.03.2019 25.03.2019 5 Tage ab 199,00 €
Altenahr: Frühlingserwachen an der Ahr 22.03.2019 24.03.2019 3 Tage ab 111,00 €
Walchsee: Winterromantik im Kaisergebirge 26.03.2019 30.03.2019 5 Tage ab 199,00 €
Lido di Jesolo: Vor den Toren Venedigs 31.03.2019 07.04.2019 8 Tage ab 359,00 €

April 2019

Titel der Reise von bis Dauer Preis
Usedom: Die Sonneninsel in der Ostsee 01.04.2019 05.04.2019 5 Tage ab 199,00 €
Templin: Saisonauftakt in der Mecklenburger Seenplatte 07.04.2019 11.04.2019 5 Tage ab 219,00 €
Oberwiesenthal: Saisoneröffnung im Erzgebirge 07.04.2019 11.04.2019 5 Tage ab 199,00 €
Rügen: Das Inselpardies in der Ostsee 08.04.2019 12.04.2019 5 Tage ab 169,00 €
Usedom: Die Sonneninsel in der Ostsee 14.04.2019 18.04.2019 5 Tage ab 229,00 €
Dagebüll: Ostererlebnis an der Nordsee 20.04.2019 24.04.2019 5 Tage ab 219,00 €
Rügen: Das Inselpardies in der Ostsee >>Ostern, Zusatztermin 20.04.2019 24.04.2019 5 Tage ab 189,00 €

Mai 2019

Titel der Reise von bis Dauer Preis
Rügen: Das Inselpardies in der Ostsee 01.05.2019 05.05.2019 5 Tage ab 199,00 €
Friedrichroda: Erlebnistage im Thüringer Wald 06.05.2019 09.05.2019 4 Tage ab 169,00 €
Walchsee: Frühlingserwachen im Kaisergebirge 07.05.2019 11.05.2019 5 Tage ab 219,00 €
Ostseeküste: Erlebnis zwischen Lübeck & Wismar 07.05.2019 11.05.2019 5 Tage ab 239,00 €
Usedom: Die Sonneninsel in der Ostsee 12.05.2019 16.05.2019 5 Tage ab 249,00 €
Allgäu: Ein märchenhaftes Erlebnis 13.05.2019 17.05.2019 5 Tage ab 222,00 €
Bad Kötzting: Erlebnis Bayerischer Wald 15.05.2019 19.05.2019 5 Tage ab 169,00 €
Templin: Sommerfrische in der Mecklenburger Seenplatte 19.05.2019 23.05.2019 5 Tage ab 239,00 €
Pongau: Bergerlebnis im Salzburger Land 20.05.2019 24.05.2019 5 Tage ab 199,00 €
Ostseeküste: Erlebnis zwischen Lübeck & Wismar 26.05.2019 30.05.2019 5 Tage ab 239,00 €
Schwarzwald: Immer wieder Sonntags... 30.05.2019 03.06.2019 5 Tage ab 215,00 €

Juni 2019

Titel der Reise von bis Dauer Preis
Allgäu: Ein märchenhaftes Erlebnis 02.06.2019 06.06.2019 5 Tage ab 233,00 €
Spessart: Unterwegs auf der Romantischen Straße 03.06.2019 07.06.2019 5 Tage ab 222,00 €
Rügen: Das Inselpardies in der Ostsee 04.06.2019 08.06.2019 5 Tage ab 199,00 €
Dresden: Willkommen im Elbflorenz 08.06.2019 11.06.2019 4 Tage ab 169,00 €
Rügen: Das Inselpardies in der Ostsee 08.06.2019 12.06.2019 5 Tage ab 199,00 €
Graubünden: Auf den Spuren des Bernina-Express 12.06.2019 16.06.2019 5 Tage ab 239,00 €
Schwarzwald: Immer wieder Sonntags... 13.06.2019 17.06.2019 5 Tage ab 209,00 €
Ostseeküste: Erlebnis zwischen Lübeck & Wismar 26.06.2019 30.06.2019 5 Tage ab 239,00 €
Prag: Im Zauber der Goldenen Stadt 27.06.2019 30.06.2019 4 Tage ab 155,00 €

Juli 2019

Titel der Reise von bis Dauer Preis
Graubünden: Auf den Spuren des Bernina-Express 01.07.2019 05.07.2019 5 Tage ab 239,00 €
Berlin: Stippvisite in der Hauptstadt 04.07.2019 07.07.2019 4 Tage ab 149,00 €
Berlin: Stippvisite in der Hauptstadt 11.07.2019 14.07.2019 4 Tage ab 149,00 €
Prag: Im Zauber der Goldenen Stadt 11.07.2019 14.07.2019 4 Tage ab 155,00 €
Rügen: Das Inselpardies in der Ostsee 14.07.2019 18.07.2019 5 Tage ab 219,00 €
Schwarzwald: Erlebnistage im Nationalpark 14.07.2019 18.07.2019 5 Tage ab 204,00 €
Dresden: Willkommen im Elbflorenz 18.07.2019 21.07.2019 4 Tage ab 169,00 €
Rügen: Das Inselpardies in der Ostsee 21.07.2019 25.07.2019 5 Tage ab 219,00 €
Bad Kötzting: Erlebnis Bayerischer Wald 22.07.2019 26.07.2019 5 Tage ab 199,00 €
Pongau: Bergerlebnis im Salzburger Land 28.07.2019 01.08.2019 5 Tage ab 239,00 €

August 2019

Titel der Reise von bis Dauer Preis
Ostseeküste: Erlebnis zwischen Lübeck & Wismar 06.08.2019 10.08.2019 5 Tage ab 239,00 €
Berlin: Stippvisite in der Hauptstadt 08.08.2019 11.08.2019 4 Tage ab 159,00 €
Berlin: Stippvisite in der Hauptstadt 15.08.2019 18.08.2019 4 Tage ab 159,00 €
Ostseeküste: Erlebnis zwischen Lübeck & Wismar 19.08.2019 23.08.2019 5 Tage ab 239,00 €
Oberwiesenthal: Grillfest im Erzgebirge 25.08.2019 29.08.2019 5 Tage ab 229,00 €
Friedrichroda: Erlebnistage im Thüringer Wald 26.08.2019 29.08.2019 4 Tage ab 174,00 €
Graubünden: Auf den Spuren des Bernina-Express 26.08.2019 30.08.2019 5 Tage ab 239,00 €
Schwarzwald: Erlebnistage im Nationalpark 31.08.2019 04.09.2019 5 Tage ab 199,00 €

September 2019

Titel der Reise von bis Dauer Preis
Templin: Sommerfrische in der Mecklenburger Seenplatte 08.09.2019 12.09.2019 5 Tage ab 239,00 €
Oberwiesenthal: Grillfest im Erzgebirge 08.09.2019 12.09.2019 5 Tage ab 219,00 €
Spessart: Unterwegs auf der Romantischen Straße 15.09.2019 19.09.2019 5 Tage ab 222,00 €
Graubünden: Auf den Spuren des Bernina-Express 16.09.2019 20.09.2019 5 Tage ab 239,00 €
Rügen: Das Inselpardies in der Ostsee 22.09.2019 26.09.2019 5 Tage ab 199,00 €
Friedrichroda: Erlebnistage im Thüringer Wald 23.09.2019 26.09.2019 4 Tage ab 174,00 €
Pongau: Almabtrieb im Salzburger Land 25.09.2019 29.09.2019 5 Tage ab 239,00 €
Rügen: Das Inselpardies in der Ostsee 29.09.2019 03.10.2019 5 Tage ab 199,00 €

Oktober 2019

Titel der Reise von bis Dauer Preis
Dresden: Willkommen im Elbflorenz 03.10.2019 06.10.2019 4 Tage ab 189,00 €
Walchsee: Herbsttage im Kaisergebirge 13.10.2019 17.10.2019 5 Tage ab 209,00 €
Adria: Bade- und Kulturvergnügen 13.10.2019 19.10.2019 7 Tage ab 333,00 €
Allgäu: Ein märchenhaftes Erlebnis 14.10.2019 18.10.2019 5 Tage ab 222,00 €
Dresden: Willkommen im Elbflorenz 17.10.2019 20.10.2019 4 Tage ab 169,00 €
Walchsee: Herbsttage im Kaisergebirge 20.10.2019 24.10.2019 5 Tage ab 209,00 €
Usedom: Die Sonneninsel in der Ostsee 21.10.2019 25.10.2019 5 Tage ab 229,00 €
Pongau: Bergerlebnis im Salzburger Land 21.10.2019 25.10.2019 5 Tage ab 229,00 €
Friedrichroda: Erlebnistage im Thüringer Wald 28.10.2019 31.10.2019 4 Tage ab 159,00 €
Dagebüll: Herbsterlebnis an der Nordsee 30.10.2019 03.11.2019 5 Tage ab 209,00 €

November 2019

Titel der Reise von bis Dauer Preis
Usedom: Die Sonneninsel in der Ostsee 04.11.2019 08.11.2019 5 Tage ab 179,00 €
Dagebüll: Herbsterlebnis an der Nordsee 20.11.2019 24.11.2019 5 Tage ab 179,00 €
Oberwiesenthal: Pyramidenanschub im Erzgebirge 24.11.2019 28.11.2019 5 Tage ab 229,00 €
Schwarzwald: Advent, Advent ein Lichtlein brennt 28.11.2019 01.12.2019 4 Tage ab 155,00 €

Dezember 2019

Titel der Reise von bis Dauer Preis
Schwarzwald: Advent, Advent ein Lichtlein brennt 02.12.2019 05.12.2019 4 Tage ab 165,00 €
Templin: Advent in der Mecklenburger Seenplatte 04.12.2019 08.12.2019 5 Tage ab 209,00 €
Berlin: Advent in der Hauptstadt 06.12.2019 08.12.2019 3 Tage ab 125,00 €
Dagebüll: Zur Adventszeit an der Nordsee 06.12.2019 09.12.2019 4 Tage ab 149,00 €
Oberwiesenthal: Advent im Erzgebirge 11.12.2019 15.12.2019 5 Tage ab 269,00 €
Berlin: Advent in der Hauptstadt 13.12.2019 15.12.2019 3 Tage ab 125,00 €
Oberwiesenthal: Bergmannskonzert im Erzgebirge 15.12.2019 19.12.2019 5 Tage ab 269,00 €
Templin: Advent in der Mecklenburger Seenplatte 16.12.2019 20.12.2019 5 Tage ab 199,00 €

Dezember 2099

Titel der Reise von bis Dauer
Allgäu: Ein märchenhaftes Erlebnis 31.12.2099 31.12.2099 5 Tage
© 2019 Claus Haupts GmbH Mönchengladbachpowered by Easytourist
Diese Internetseite verwendet Cookies, um die Nutzererfahrung zu verbessern und den Benutzern bestimmte Dienste und Funktionen bereitzustellen.DetailsOK